createdAt,value
2022-08-20T00:01:56.743Z,21.96
2022-08-20T00:04:24.291Z,21.97
2022-08-20T00:06:52.297Z,21.98
2022-08-20T00:09:19.760Z,21.97
2022-08-20T00:11:47.205Z,21.96
2022-08-20T00:14:14.658Z,21.97
2022-08-20T00:16:42.712Z,21.98
2022-08-20T00:19:10.434Z,22.01
2022-08-20T00:21:38.034Z,22.06
2022-08-20T00:24:05.936Z,22.08
2022-08-20T00:26:33.500Z,22.09
2022-08-20T00:29:00.986Z,22.11
2022-08-20T00:31:28.659Z,22.14
2022-08-20T00:33:56.140Z,22.15
2022-08-20T00:36:32.507Z,22.13
2022-08-20T00:39:00.879Z,22.08
2022-08-20T00:41:29.068Z,22.08
2022-08-20T00:44:15.506Z,22.08
2022-08-20T00:46:44.612Z,22.11
2022-08-20T00:49:22.140Z,22.14
2022-08-20T00:52:13.572Z,22.18
2022-08-20T00:54:49.267Z,22.25
2022-08-20T00:57:28.876Z,22.30
2022-08-20T01:00:22.206Z,22.35
2022-08-20T01:02:50.618Z,22.39
2022-08-20T01:05:18.894Z,22.43
2022-08-20T01:07:46.447Z,22.47
2022-08-20T01:10:19.364Z,22.46
2022-08-20T01:12:49.278Z,22.41
2022-08-20T01:15:26.909Z,22.39
2022-08-20T01:18:01.846Z,22.39
2022-08-20T01:20:36.165Z,22.41
2022-08-20T01:23:32.503Z,22.44
2022-08-20T01:26:30.192Z,22.47
2022-08-20T01:29:03.089Z,22.49
2022-08-20T01:31:33.233Z,22.53
2022-08-20T01:34:03.577Z,22.54
2022-08-20T01:36:41.904Z,22.54
2022-08-20T01:39:15.189Z,22.54
2022-08-20T01:41:58.718Z,22.56
2022-08-20T01:44:27.288Z,22.56
2022-08-20T01:46:57.770Z,22.56
2022-08-20T01:49:29.908Z,22.57
2022-08-20T01:52:05.409Z,22.58
2022-08-20T01:54:34.148Z,22.57
2022-08-20T01:57:12.208Z,22.54
2022-08-20T01:59:40.378Z,22.50
2022-08-20T02:02:08.860Z,22.47
2022-08-20T02:04:36.839Z,22.45
2022-08-20T02:07:07.165Z,22.41
2022-08-20T02:09:39.248Z,22.39
2022-08-20T02:12:09.339Z,22.40
2022-08-20T02:14:42.338Z,22.41
2022-08-20T02:17:11.319Z,22.39
2022-08-20T02:19:45.499Z,22.39
2022-08-20T02:22:31.915Z,22.36
2022-08-20T02:24:59.351Z,22.33
2022-08-20T02:27:27.722Z,22.28
2022-08-20T02:29:55.241Z,22.26
2022-08-20T02:32:24.574Z,22.25
2022-08-20T02:35:04.189Z,22.26
2022-08-20T02:37:31.822Z,22.29
2022-08-20T02:39:59.707Z,22.32
2022-08-20T02:42:27.329Z,22.35
2022-08-20T02:44:54.848Z,22.38
2022-08-20T02:47:22.257Z,22.41
2022-08-20T02:49:49.686Z,22.46
2022-08-20T02:52:17.111Z,22.49
2022-08-20T02:54:44.556Z,22.54
2022-08-20T02:57:16.916Z,22.58
2022-08-20T02:59:45.222Z,22.62
2022-08-20T03:02:13.331Z,22.66
2022-08-20T03:04:42.788Z,22.67
2022-08-20T03:07:10.544Z,22.69
2022-08-20T03:09:38.486Z,22.70
2022-08-20T03:12:07.496Z,22.71
2022-08-20T03:14:35.706Z,22.73
2022-08-20T03:17:03.941Z,22.73
2022-08-20T03:19:31.396Z,22.75
2022-08-20T03:21:58.969Z,22.74
2022-08-20T03:24:26.431Z,22.74
2022-08-20T03:26:54.019Z,22.74
2022-08-20T03:29:21.506Z,22.74
2022-08-20T03:31:48.994Z,22.74
2022-08-20T03:34:16.459Z,22.73
2022-08-20T03:36:43.919Z,22.73
2022-08-20T03:39:13.190Z,22.74
2022-08-20T03:41:40.660Z,22.75
2022-08-20T03:44:08.182Z,22.74
2022-08-20T03:46:36.000Z,22.73
2022-08-20T03:49:03.923Z,22.72
2022-08-20T03:51:43.476Z,22.73
2022-08-20T03:54:19.891Z,22.73
2022-08-20T03:56:47.811Z,22.75
2022-08-20T03:59:15.499Z,22.78
2022-08-20T04:01:45.975Z,22.79
2022-08-20T04:04:15.690Z,22.79
2022-08-20T04:06:43.992Z,22.77
2022-08-20T04:09:12.402Z,22.76
2022-08-20T04:11:43.757Z,22.77
2022-08-20T04:14:12.913Z,22.78
2022-08-20T04:16:47.549Z,22.78
2022-08-20T04:19:16.734Z,22.78
2022-08-20T04:21:44.423Z,22.78
2022-08-20T04:24:21.926Z,22.76
2022-08-20T04:26:59.433Z,22.78
2022-08-20T04:29:32.520Z,22.81
2022-08-20T04:32:05.645Z,22.79
2022-08-20T04:34:33.835Z,22.78
2022-08-20T04:37:01.252Z,22.79
2022-08-20T04:39:28.679Z,22.80
2022-08-20T04:41:56.167Z,22.82
2022-08-20T04:44:23.648Z,22.82
2022-08-20T04:46:51.052Z,22.80
2022-08-20T04:49:20.488Z,22.81
2022-08-20T04:51:47.879Z,22.83
2022-08-20T04:54:15.611Z,22.83
2022-08-20T04:56:43.224Z,22.85
2022-08-20T04:59:10.678Z,22.86
2022-08-20T05:01:38.198Z,22.88
2022-08-20T05:04:05.653Z,22.89
2022-08-20T05:06:33.365Z,22.91
2022-08-20T05:09:01.437Z,22.94
2022-08-20T05:11:34.559Z,22.95
2022-08-20T05:14:09.318Z,22.95
2022-08-20T05:16:39.233Z,22.96
2022-08-20T05:19:10.026Z,22.96
2022-08-20T05:21:38.793Z,22.98
2022-08-20T05:24:07.341Z,23.01
2022-08-20T05:26:34.915Z,23.00
2022-08-20T05:29:05.672Z,23.01
2022-08-20T05:31:34.480Z,23.03
2022-08-20T05:34:10.716Z,23.07
2022-08-20T05:36:42.408Z,23.13
2022-08-20T05:39:10.305Z,23.18
2022-08-20T05:41:39.359Z,23.22
2022-08-20T05:44:14.189Z,23.27
2022-08-20T05:46:44.092Z,23.32
2022-08-20T05:49:18.930Z,23.32
2022-08-20T05:51:46.824Z,23.35
2022-08-20T05:54:14.767Z,23.40
2022-08-20T05:56:42.302Z,23.45
2022-08-20T05:59:12.329Z,23.45
2022-08-20T06:01:41.382Z,23.47
2022-08-20T06:04:26.711Z,23.52
2022-08-20T06:07:06.420Z,23.55
2022-08-20T06:09:36.044Z,23.56
2022-08-20T06:12:06.415Z,23.59
2022-08-20T06:14:35.166Z,23.64
2022-08-20T06:17:13.551Z,23.66
2022-08-20T06:19:44.113Z,23.68
2022-08-20T06:22:19.748Z,23.71
2022-08-20T06:24:51.892Z,23.69
2022-08-20T06:27:20.281Z,23.67
2022-08-20T06:29:47.895Z,23.65
2022-08-20T06:32:15.618Z,23.64
2022-08-20T06:34:50.624Z,23.61
2022-08-20T06:37:23.185Z,23.60
2022-08-20T06:40:09.821Z,23.60
2022-08-20T06:42:44.543Z,23.56
2022-08-20T06:45:24.440Z,23.54
2022-08-20T06:47:55.885Z,23.54
2022-08-20T06:50:28.396Z,23.57
2022-08-20T06:52:56.410Z,23.57
2022-08-20T06:55:24.362Z,23.56
2022-08-20T06:58:02.816Z,23.57
2022-08-20T07:00:33.096Z,23.60
2022-08-20T07:03:02.096Z,23.66
2022-08-20T07:05:34.086Z,23.74
2022-08-20T07:08:01.770Z,23.81
2022-08-20T07:10:30.519Z,23.90
2022-08-20T07:13:00.134Z,23.96
2022-08-20T07:15:27.694Z,24.04
2022-08-20T07:18:01.157Z,24.13
2022-08-20T07:20:31.817Z,24.24
2022-08-20T07:23:00.701Z,24.36
2022-08-20T07:25:30.486Z,24.51
2022-08-20T07:28:07.399Z,24.67
2022-08-20T07:30:56.075Z,24.78
2022-08-20T07:33:28.573Z,24.86
2022-08-20T07:35:58.947Z,24.93
2022-08-20T07:38:29.039Z,25.01
2022-08-20T07:41:02.035Z,25.08
2022-08-20T07:43:30.383Z,25.16
2022-08-20T07:46:07.490Z,25.24
2022-08-20T07:48:39.803Z,25.35
2022-08-20T07:51:10.796Z,25.41
2022-08-20T07:53:39.735Z,25.43
2022-08-20T07:56:11.573Z,25.43
2022-08-20T07:58:49.649Z,25.41
2022-08-20T08:01:20.227Z,25.43
2022-08-20T08:03:50.007Z,25.44
2022-08-20T08:06:29.538Z,25.43
2022-08-20T08:09:05.860Z,25.41
2022-08-20T08:11:37.895Z,25.35
2022-08-20T08:14:08.016Z,25.30
2022-08-20T08:16:36.553Z,25.28
2022-08-20T08:19:08.965Z,25.24
2022-08-20T08:21:36.516Z,25.26
2022-08-20T08:24:04.866Z,25.30
2022-08-20T08:26:32.418Z,25.34
2022-08-20T08:28:59.856Z,25.38
2022-08-20T08:31:27.410Z,25.42
2022-08-20T08:33:55.551Z,25.44
2022-08-20T08:36:24.602Z,25.46
2022-08-20T08:38:54.007Z,25.47
2022-08-20T08:41:29.443Z,25.54
2022-08-20T08:44:06.018Z,25.58
2022-08-20T08:46:40.220Z,25.62
2022-08-20T08:49:12.742Z,25.66
2022-08-20T08:51:45.046Z,25.68
2022-08-20T08:54:18.553Z,25.71
2022-08-20T08:56:49.761Z,25.72
2022-08-20T08:59:20.627Z,25.75
2022-08-20T09:01:56.961Z,25.79
2022-08-20T09:04:40.957Z,25.82
2022-08-20T09:07:16.214Z,25.86
2022-08-20T09:09:46.825Z,25.87
2022-08-20T09:12:20.185Z,25.84
2022-08-20T09:14:50.061Z,25.82
2022-08-20T09:17:20.634Z,25.82
2022-08-20T09:19:50.074Z,25.79
2022-08-20T09:22:21.210Z,25.76
2022-08-20T09:24:49.910Z,25.72
2022-08-20T09:27:18.052Z,25.66
2022-08-20T09:29:45.799Z,25.59
2022-08-20T09:32:21.352Z,25.51
2022-08-20T09:34:55.992Z,25.43
2022-08-20T09:37:33.596Z,25.36
2022-08-20T09:40:07.757Z,25.31
2022-08-20T09:42:40.949Z,25.31
2022-08-20T09:45:11.521Z,25.34
2022-08-20T09:47:43.837Z,25.41
2022-08-20T09:50:25.630Z,25.51
2022-08-20T09:52:55.706Z,25.65
2022-08-20T09:55:35.435Z,25.85
2022-08-20T09:58:08.130Z,26.12
2022-08-20T10:00:35.702Z,26.37
2022-08-20T10:03:03.272Z,26.55
2022-08-20T10:05:31.529Z,26.75
2022-08-20T10:07:59.576Z,26.94
2022-08-20T10:10:27.064Z,27.10
2022-08-20T10:12:55.169Z,27.22
2022-08-20T10:15:22.772Z,27.36
2022-08-20T10:17:50.273Z,27.55
2022-08-20T10:20:18.902Z,27.82
2022-08-20T10:22:46.455Z,28.28
2022-08-20T10:25:14.008Z,28.75
2022-08-20T10:27:41.500Z,29.33
2022-08-20T10:30:09.945Z,29.92
2022-08-20T10:32:37.389Z,30.43
2022-08-20T10:35:05.149Z,30.87
2022-08-20T10:37:34.811Z,31.19
2022-08-20T10:40:03.544Z,31.44
2022-08-20T10:42:31.003Z,31.69
2022-08-20T10:44:58.447Z,31.91
2022-08-20T10:47:29.528Z,31.96
2022-08-20T10:50:00.423Z,31.90
2022-08-20T10:52:28.811Z,31.84
2022-08-20T10:54:56.615Z,31.76
2022-08-20T10:57:26.839Z,31.67
2022-08-20T10:59:56.360Z,31.80
2022-08-20T11:02:24.492Z,32.06
2022-08-20T11:04:53.226Z,32.15
2022-08-20T11:07:50.848Z,32.10
2022-08-20T11:10:13.755Z,32.10
2022-08-20T11:12:45.491Z,32.32
2022-08-20T11:15:14.937Z,32.52
2022-08-20T11:17:44.324Z,32.98
2022-08-20T11:20:14.873Z,33.12
2022-08-20T11:22:42.378Z,33.11
2022-08-20T11:25:10.873Z,32.97
2022-08-20T11:27:41.669Z,32.77
2022-08-20T11:30:13.838Z,32.74
2022-08-20T11:32:41.930Z,32.96
2022-08-20T11:35:40.630Z,33.46
2022-08-20T11:38:00.681Z,33.82
2022-08-20T11:40:30.452Z,34.07
2022-08-20T11:43:14.115Z,34.21
2022-08-20T11:45:42.401Z,34.44
2022-08-20T11:48:09.848Z,34.61
2022-08-20T11:50:37.392Z,34.69
2022-08-20T11:53:04.814Z,34.77
2022-08-20T11:55:32.655Z,34.89
2022-08-20T11:58:01.132Z,34.83
2022-08-20T12:00:33.151Z,34.94
2022-08-20T12:03:05.004Z,35.09
2022-08-20T12:05:32.967Z,35.23
2022-08-20T12:08:01.985Z,35.18
2022-08-20T12:10:30.682Z,35.20
2022-08-20T12:12:58.632Z,35.28
2022-08-20T12:15:27.747Z,35.43
2022-08-20T12:17:56.403Z,35.28
2022-08-20T12:20:24.333Z,34.97
2022-08-20T12:22:53.882Z,35.10
2022-08-20T12:25:21.491Z,35.14
2022-08-20T12:27:48.909Z,35.15
2022-08-20T12:30:19.762Z,34.92
2022-08-20T12:32:47.601Z,34.61
2022-08-20T12:35:17.112Z,34.25
2022-08-20T12:37:47.110Z,33.82
2022-08-20T12:40:25.523Z,33.43
2022-08-20T12:43:04.963Z,33.32
2022-08-20T12:45:34.527Z,33.17
2022-08-20T12:48:14.211Z,33.22
2022-08-20T12:50:45.572Z,33.41
2022-08-20T12:53:13.184Z,33.68
2022-08-20T12:55:40.645Z,33.90
2022-08-20T12:58:10.036Z,33.99
2022-08-20T13:00:43.397Z,33.98
2022-08-20T13:03:12.899Z,33.98
2022-08-20T13:05:40.841Z,33.97
2022-08-20T13:08:10.574Z,34.32
2022-08-20T13:10:45.491Z,34.80
2022-08-20T13:13:20.845Z,35.17
2022-08-20T13:15:51.641Z,35.47
2022-08-20T13:18:20.602Z,36.02
2022-08-20T13:20:48.961Z,36.55
2022-08-20T13:23:16.496Z,36.86
2022-08-20T13:25:44.024Z,36.80
2022-08-20T13:28:11.561Z,36.66
2022-08-20T13:30:40.915Z,36.59
2022-08-20T13:33:08.505Z,36.52
2022-08-20T13:35:36.010Z,36.39
2022-08-20T13:38:03.564Z,36.24
2022-08-20T13:40:31.107Z,36.00
2022-08-20T13:43:04.504Z,35.71
2022-08-20T13:45:36.297Z,35.29
2022-08-20T13:48:04.900Z,34.92
2022-08-20T13:50:36.000Z,34.43
2022-08-20T13:53:04.357Z,34.07
2022-08-20T13:55:34.732Z,33.76
2022-08-20T13:58:07.720Z,33.47
2022-08-20T14:00:36.103Z,33.28
2022-08-20T14:03:05.601Z,33.25
2022-08-20T14:05:34.383Z,33.29
2022-08-20T14:08:20.642Z,33.45
2022-08-20T14:10:51.569Z,33.85
2022-08-20T14:13:23.207Z,34.23
2022-08-20T14:15:51.061Z,34.40
2022-08-20T14:18:19.211Z,34.45
2022-08-20T14:20:46.811Z,34.51
2022-08-20T14:23:15.282Z,34.86
2022-08-20T14:25:46.291Z,35.20
2022-08-20T14:28:18.252Z,35.28
2022-08-20T14:30:52.893Z,35.57
2022-08-20T14:33:23.024Z,36.31
2022-08-20T14:35:52.139Z,37.09
2022-08-20T14:38:19.677Z,37.66
2022-08-20T14:40:47.361Z,38.09
2022-08-20T14:43:14.846Z,38.50
2022-08-20T14:45:42.380Z,38.93
2022-08-20T14:48:10.012Z,39.29
2022-08-20T14:50:37.480Z,39.56
2022-08-20T14:53:05.356Z,39.92
2022-08-20T14:55:37.238Z,40.11
2022-08-20T14:58:12.980Z,40.16
2022-08-20T15:00:42.041Z,40.16
2022-08-20T15:03:09.599Z,40.35
2022-08-20T15:05:39.498Z,40.49
2022-08-20T15:08:10.511Z,40.61
2022-08-20T15:10:39.574Z,40.73
2022-08-20T15:13:08.142Z,40.48
2022-08-20T15:15:35.739Z,40.16
2022-08-20T15:18:03.461Z,39.80
2022-08-20T15:20:33.843Z,39.45
2022-08-20T15:23:02.247Z,39.08
2022-08-20T15:25:36.443Z,38.63
2022-08-20T15:28:08.667Z,38.06
2022-08-20T15:30:39.503Z,37.99
2022-08-20T15:33:08.711Z,38.29
2022-08-20T15:35:36.367Z,38.45
2022-08-20T15:38:04.168Z,38.50
2022-08-20T15:40:32.691Z,38.31
2022-08-20T15:43:02.885Z,38.17
2022-08-20T15:45:31.552Z,38.19
2022-08-20T15:48:01.834Z,38.19
2022-08-20T15:50:47.133Z,38.28
2022-08-20T15:53:37.713Z,38.70
2022-08-20T15:56:27.484Z,39.13
2022-08-20T15:59:10.906Z,39.43
2022-08-20T16:01:52.387Z,39.73
2022-08-20T16:04:50.696Z,40.12
2022-08-20T16:07:43.432Z,40.48
2022-08-20T16:10:49.942Z,40.62
2022-08-20T16:13:33.336Z,40.55
2022-08-20T16:16:02.454Z,40.40
2022-08-20T16:18:34.701Z,39.98
2022-08-20T16:21:09.000Z,39.81
2022-08-20T16:23:39.480Z,39.54
2022-08-20T16:26:32.239Z,38.95
2022-08-20T16:29:19.944Z,38.26
2022-08-20T16:31:53.299Z,37.99
2022-08-20T16:34:42.905Z,37.51
2022-08-20T16:37:31.066Z,36.96
2022-08-20T16:40:12.932Z,36.46
2022-08-20T16:42:44.305Z,35.86
2022-08-20T16:45:24.232Z,35.26
2022-08-20T16:47:55.593Z,34.65
2022-08-20T16:50:27.691Z,34.18
2022-08-20T16:52:55.393Z,33.77
2022-08-20T16:55:24.072Z,33.43
2022-08-20T16:57:53.698Z,33.14
2022-08-20T17:00:44.830Z,32.87
2022-08-20T17:03:39.165Z,32.59
2022-08-20T17:06:27.033Z,32.31
2022-08-20T17:08:55.305Z,32.05
2022-08-20T17:11:25.810Z,31.82
2022-08-20T17:14:07.905Z,31.62
2022-08-20T17:16:48.411Z,31.41
2022-08-20T17:19:35.000Z,31.19
2022-08-20T17:22:11.866Z,30.97
2022-08-20T17:24:40.358Z,30.75
2022-08-20T17:27:15.969Z,30.55
2022-08-20T17:29:56.224Z,30.37
2022-08-20T17:32:26.731Z,30.17
2022-08-20T17:34:57.875Z,29.98
2022-08-20T17:37:33.749Z,29.81
2022-08-20T17:40:38.566Z,29.63
2022-08-20T17:43:09.615Z,29.43
2022-08-20T17:45:43.783Z,29.25
2022-08-20T17:48:19.228Z,29.09
2022-08-20T17:50:47.023Z,28.92
2022-08-20T17:53:35.829Z,28.77
2022-08-20T17:56:24.965Z,28.61
2022-08-20T17:59:24.082Z,28.41
2022-08-20T18:02:13.448Z,28.18
2022-08-20T18:04:41.127Z,28.00
2022-08-20T18:07:31.767Z,27.84
2022-08-20T18:10:21.298Z,27.69
2022-08-20T18:13:10.593Z,27.53
2022-08-20T18:15:48.814Z,27.40
2022-08-20T18:18:34.943Z,27.26
2022-08-20T18:21:20.447Z,27.15
2022-08-20T18:23:55.893Z,27.07
2022-08-20T18:26:31.935Z,27.01
2022-08-20T18:29:07.680Z,26.94
2022-08-20T18:32:01.971Z,26.88
2022-08-20T18:34:31.397Z,26.83
2022-08-20T18:37:05.196Z,26.78
2022-08-20T18:39:39.086Z,26.74
2022-08-20T18:42:10.627Z,26.67
2022-08-20T18:44:44.482Z,26.59
2022-08-20T18:47:22.873Z,26.57
2022-08-20T18:50:07.496Z,26.54
2022-08-20T18:52:50.771Z,26.49
2022-08-20T18:55:39.327Z,26.43
2022-08-20T18:58:11.538Z,26.29
2022-08-20T19:00:48.446Z,26.11
2022-08-20T19:03:26.418Z,26.00
2022-08-20T19:06:20.747Z,25.95
2022-08-20T19:08:56.432Z,25.91
2022-08-20T19:11:55.874Z,25.87
2022-08-20T19:14:35.518Z,25.69
2022-08-20T19:17:24.652Z,24.67
2022-08-20T19:20:12.943Z,23.48
2022-08-20T19:22:43.240Z,22.46
2022-08-20T19:39:35.652Z,20.34
2022-08-20T19:42:12.182Z,20.02
2022-08-20T19:44:50.212Z,19.92
2022-08-20T19:47:26.518Z,19.88
2022-08-20T19:50:09.939Z,19.92
2022-08-20T19:52:56.884Z,20.02
2022-08-20T19:55:29.857Z,20.10
2022-08-20T19:58:01.036Z,20.11
2022-08-20T20:00:37.178Z,20.15
2022-08-20T20:03:14.089Z,20.21
2022-08-20T20:05:59.297Z,20.26
2022-08-20T20:08:30.440Z,20.35
2022-08-20T20:11:00.527Z,20.44
2022-08-20T20:13:31.263Z,20.54
2022-08-20T20:16:04.420Z,20.62
2022-08-20T20:18:36.794Z,20.67
2022-08-20T20:21:12.996Z,20.71
2022-08-20T20:23:46.436Z,20.74
2022-08-20T20:26:18.340Z,20.77
2022-08-20T20:29:00.545Z,20.77
2022-08-20T20:31:31.901Z,20.74
2022-08-20T20:34:07.494Z,20.73
2022-08-20T20:36:38.289Z,20.74
2022-08-20T20:39:28.130Z,20.76
2022-08-20T20:41:59.514Z,20.78
2022-08-20T20:44:37.061Z,20.78
2022-08-20T20:47:16.928Z,20.78
2022-08-20T20:49:56.177Z,20.77
2022-08-20T20:52:30.795Z,20.78
2022-08-20T20:55:26.817Z,20.75
2022-08-20T20:57:55.053Z,20.75
2022-08-20T21:00:28.967Z,20.81
2022-08-20T21:02:57.434Z,20.80
2022-08-20T21:05:28.653Z,20.80
2022-08-20T21:08:00.288Z,20.81
2022-08-20T21:10:35.463Z,20.77
2022-08-20T21:13:05.157Z,20.48
2022-08-20T21:15:34.285Z,20.29
2022-08-20T21:18:07.366Z,20.21
2022-08-20T21:20:35.516Z,20.20
2022-08-20T21:23:03.880Z,20.20
2022-08-20T21:25:35.155Z,20.24
2022-08-20T21:28:03.525Z,20.26
2022-08-20T21:30:31.647Z,20.24
2022-08-20T21:33:00.345Z,20.20
2022-08-20T21:35:28.301Z,20.16
2022-08-20T21:37:56.877Z,20.19
2022-08-20T21:40:28.308Z,20.25
2022-08-20T21:42:56.705Z,20.28
2022-08-20T21:45:24.433Z,20.26
2022-08-20T21:47:58.008Z,20.22
2022-08-20T21:50:26.447Z,20.23
2022-08-20T21:52:58.008Z,20.29
2022-08-20T21:55:37.429Z,20.35
2022-08-20T21:58:08.670Z,20.34
2022-08-20T22:00:54.964Z,20.36
2022-08-20T22:03:29.232Z,20.39
2022-08-20T22:06:00.509Z,20.39
2022-08-20T22:08:28.683Z,20.41
2022-08-20T22:10:59.723Z,20.43
2022-08-20T22:13:31.883Z,20.45
2022-08-20T22:16:11.510Z,20.46
2022-08-20T22:18:39.320Z,20.50
2022-08-20T22:21:14.263Z,20.54
2022-08-20T22:23:41.841Z,20.60
2022-08-20T22:26:09.896Z,20.65
2022-08-20T22:28:38.792Z,20.68
2022-08-20T22:31:07.562Z,20.65
2022-08-20T22:33:35.689Z,20.53
2022-08-20T22:36:06.342Z,20.44
2022-08-20T22:38:35.984Z,20.43
2022-08-20T22:41:08.998Z,20.41
2022-08-20T22:43:44.984Z,20.41
2022-08-20T22:46:27.092Z,20.46
2022-08-20T22:48:55.822Z,20.47
2022-08-20T22:51:30.208Z,20.47
2022-08-20T22:54:00.243Z,20.47
2022-08-20T22:56:29.877Z,20.49
2022-08-20T22:58:59.496Z,20.52
2022-08-20T23:01:28.772Z,20.48
2022-08-20T23:04:27.849Z,20.46
2022-08-20T23:06:57.600Z,20.43
2022-08-20T23:09:26.628Z,20.41
2022-08-20T23:11:54.683Z,20.40
2022-08-20T23:14:22.309Z,20.41
2022-08-20T23:17:12.683Z,20.41
2022-08-20T23:19:42.039Z,20.39
2022-08-20T23:22:11.567Z,20.38
2022-08-20T23:24:39.744Z,20.35
2022-08-20T23:27:09.949Z,20.32
2022-08-20T23:29:37.732Z,20.32
2022-08-20T23:32:05.704Z,20.32
2022-08-20T23:34:33.577Z,20.31
2022-08-20T23:37:02.469Z,20.28
2022-08-20T23:39:31.243Z,20.27
2022-08-20T23:41:59.860Z,20.32
2022-08-20T23:44:28.274Z,20.36
2022-08-20T23:46:58.309Z,20.35
2022-08-20T23:49:27.897Z,20.39
2022-08-20T23:51:55.506Z,20.43
2022-08-20T23:54:22.977Z,20.50
2022-08-20T23:56:50.421Z,20.56
2022-08-20T23:59:17.883Z,20.61
